createdAt,value
2023-03-16T05:01:56.161Z,-0.38
2023-03-16T05:06:08.656Z,-0.39
2023-03-16T05:10:21.923Z,-0.36
2023-03-16T05:14:35.943Z,-0.36
2023-03-16T05:19:05.851Z,-0.39
2023-03-16T05:23:21.524Z,-0.34
2023-03-16T05:27:38.222Z,-0.28
2023-03-16T05:31:51.264Z,-0.22
2023-03-16T05:36:06.768Z,-0.25
2023-03-16T05:40:22.786Z,-0.29
2023-03-16T05:44:44.756Z,-0.21
2023-03-16T05:49:04.378Z,-0.24
2023-03-16T05:53:16.082Z,-0.25
2023-03-16T05:57:27.923Z,-0.22
2023-03-16T06:01:40.218Z,-0.06
2023-03-16T06:05:52.597Z,0.05
2023-03-16T06:10:13.302Z,0.34
2023-03-16T06:14:25.553Z,0.35
2023-03-16T06:18:39.843Z,0.32
2023-03-16T06:22:51.580Z,0.35
2023-03-16T06:27:03.439Z,0.35
2023-03-16T06:31:21.333Z,0.33
2023-03-16T06:35:33.519Z,0.44
2023-03-16T06:39:56.756Z,0.56
2023-03-16T06:44:09.488Z,0.52
2023-03-16T06:48:26.241Z,0.66
2023-03-16T06:52:38.335Z,0.77
2023-03-16T06:56:50.156Z,0.87
2023-03-16T07:01:03.831Z,0.87
2023-03-16T07:05:15.482Z,0.86
2023-03-16T07:09:27.617Z,0.89
2023-03-16T07:13:39.161Z,1.05
2023-03-16T07:17:52.421Z,1.05
2023-03-16T07:22:04.352Z,3.11
2023-03-16T07:26:20.117Z,4.39
2023-03-16T07:30:39.325Z,4.35
2023-03-16T07:34:53.905Z,4.41
2023-03-16T07:39:06.272Z,4.38
2023-03-16T07:43:19.450Z,4.00
2023-03-16T07:47:34.477Z,3.66
2023-03-16T07:51:54.082Z,3.77
2023-03-16T07:56:11.335Z,3.79
2023-03-16T08:00:24.812Z,3.91
2023-03-16T08:04:36.633Z,4.30
2023-03-16T08:08:48.618Z,4.10
2023-03-16T08:13:07.971Z,4.22
2023-03-16T08:17:21.647Z,4.45
2023-03-16T08:21:42.436Z,4.45
2023-03-16T08:26:01.129Z,4.55
2023-03-16T08:30:13.981Z,4.66
2023-03-16T08:34:30.182Z,4.51
2023-03-16T08:39:03.772Z,4.89
2023-03-16T08:43:17.182Z,5.15
2023-03-16T08:47:29.675Z,5.26
2023-03-16T08:51:44.816Z,5.51
2023-03-16T08:56:08.226Z,5.68
2023-03-16T09:00:20.510Z,5.88
2023-03-16T09:04:32.473Z,5.97
2023-03-16T09:08:45.485Z,6.22
2023-03-16T09:12:57.608Z,6.53
2023-03-16T09:17:09.776Z,6.71
2023-03-16T09:21:21.521Z,6.98
2023-03-16T09:25:33.553Z,7.14
2023-03-16T09:29:45.399Z,6.88
2023-03-16T09:33:56.980Z,6.97
2023-03-16T09:38:08.502Z,7.10
2023-03-16T09:42:22.548Z,6.84
2023-03-16T09:46:41.549Z,6.99
2023-03-16T09:50:56.624Z,7.28
2023-03-16T09:55:27.055Z,7.44
2023-03-16T09:59:38.970Z,7.29
2023-03-16T10:04:15.232Z,7.67
2023-03-16T10:08:37.726Z,7.83
2023-03-16T10:12:53.870Z,7.83
2023-03-16T10:17:14.332Z,7.98
2023-03-16T10:21:25.907Z,8.35
2023-03-16T10:25:43.569Z,8.68
2023-03-16T10:29:55.180Z,8.46
2023-03-16T10:34:08.472Z,8.53
2023-03-16T10:38:39.977Z,8.69
2023-03-16T10:42:51.544Z,8.89
2023-03-16T10:47:06.082Z,9.13
2023-03-16T10:51:22.587Z,9.25
2023-03-16T10:55:43.543Z,9.46
2023-03-16T10:59:59.301Z,9.74
2023-03-16T11:04:15.459Z,9.83
2023-03-16T11:08:31.379Z,9.93
2023-03-16T11:12:48.593Z,10.00
2023-03-16T11:17:10.693Z,10.00
2023-03-16T11:21:50.883Z,10.02
2023-03-16T11:26:15.288Z,10.04
2023-03-16T11:30:39.102Z,10.21
2023-03-16T11:34:53.831Z,10.34
2023-03-16T11:39:22.886Z,10.62
2023-03-16T11:44:08.609Z,10.70
2023-03-16T11:48:37.202Z,10.81
2023-03-16T11:53:11.394Z,10.71
2023-03-16T11:57:33.807Z,10.94
2023-03-16T12:02:33.854Z,11.09
2023-03-16T12:06:51.605Z,11.19
2023-03-16T12:11:07.756Z,11.14
2023-03-16T12:15:32.443Z,11.20
2023-03-16T12:19:56.770Z,11.16
2023-03-16T12:24:18.135Z,11.12
2023-03-16T12:28:32.241Z,11.38
2023-03-16T12:32:53.551Z,11.60
2023-03-16T12:37:11.054Z,11.53
2023-03-16T12:41:36.539Z,11.57
2023-03-16T12:45:48.241Z,11.53
2023-03-16T12:50:09.291Z,11.69
2023-03-16T12:54:23.038Z,12.01
2023-03-16T12:58:34.672Z,12.07
2023-03-16T13:02:56.086Z,12.25
2023-03-16T13:07:15.142Z,12.25
2023-03-16T13:11:28.056Z,12.47
2023-03-16T13:15:40.059Z,12.52
2023-03-16T13:20:02.276Z,12.34
2023-03-16T13:24:39.937Z,12.45
2023-03-16T13:28:54.285Z,12.40
2023-03-16T13:33:20.912Z,12.00
2023-03-16T13:37:34.260Z,12.09
2023-03-16T13:41:59.557Z,11.98
2023-03-16T13:46:17.134Z,11.79
2023-03-16T13:50:33.330Z,11.85
2023-03-16T13:54:45.014Z,11.86
2023-03-16T13:58:58.444Z,11.87
2023-03-16T14:03:19.263Z,11.93
2023-03-16T14:07:38.427Z,12.04
2023-03-16T14:11:50.090Z,12.10
2023-03-16T14:16:06.252Z,11.91
2023-03-16T14:20:25.362Z,11.95
2023-03-16T14:24:40.959Z,11.97
2023-03-16T14:28:57.349Z,12.03
2023-03-16T14:33:28.270Z,12.00
2023-03-16T14:37:41.141Z,11.95
2023-03-16T14:41:52.696Z,11.97
2023-03-16T14:46:07.271Z,12.01
2023-03-16T14:50:25.818Z,11.97
2023-03-16T14:54:37.452Z,12.05
2023-03-16T14:58:48.997Z,12.00
2023-03-16T15:03:08.194Z,12.01
2023-03-16T15:07:45.410Z,11.95
2023-03-16T15:11:58.048Z,11.83
2023-03-16T15:16:14.069Z,11.96
2023-03-16T15:20:31.627Z,11.79
2023-03-16T15:24:43.267Z,11.69
2023-03-16T15:28:56.402Z,11.70
2023-03-16T15:33:09.970Z,11.65
2023-03-16T15:37:24.304Z,11.56
2023-03-16T15:41:47.269Z,11.58
2023-03-16T15:46:03.538Z,11.63
2023-03-16T15:50:16.735Z,11.49
2023-03-16T15:54:29.362Z,11.38
2023-03-16T15:58:43.911Z,11.42
2023-03-16T16:02:59.080Z,11.24
2023-03-16T16:07:11.401Z,11.26
2023-03-16T16:11:28.383Z,11.22
2023-03-16T16:15:41.729Z,11.11
2023-03-16T16:19:53.597Z,11.04
2023-03-16T16:24:06.136Z,11.07
2023-03-16T16:28:21.850Z,11.03
2023-03-16T16:32:33.597Z,11.00
2023-03-16T16:36:45.596Z,11.01
2023-03-16T16:41:01.434Z,10.90
2023-03-16T16:45:21.981Z,10.85
2023-03-16T16:49:35.238Z,10.78
2023-03-16T16:53:48.003Z,10.72
2023-03-16T16:58:00.367Z,10.63
2023-03-16T17:02:28.364Z,10.55
2023-03-16T17:06:39.874Z,10.46
2023-03-16T17:10:53.186Z,10.38
2023-03-16T17:15:19.195Z,10.27
2023-03-16T17:19:30.768Z,10.14
2023-03-16T17:23:42.826Z,10.02
2023-03-16T17:27:57.265Z,9.80
2023-03-16T17:32:19.029Z,9.57
2023-03-16T17:36:30.615Z,9.44
2023-03-16T17:40:42.283Z,9.27
2023-03-16T17:44:54.067Z,9.18
2023-03-16T17:49:20.137Z,9.10
2023-03-16T17:53:31.852Z,8.92
2023-03-16T17:57:43.741Z,8.74
2023-03-16T18:01:55.762Z,8.63
2023-03-16T18:06:07.483Z,8.52
2023-03-16T18:10:25.601Z,8.46
2023-03-16T18:14:39.689Z,8.44
2023-03-16T18:18:53.994Z,8.30
2023-03-16T18:23:26.587Z,8.20
2023-03-16T18:27:38.647Z,8.14
2023-03-16T18:31:52.931Z,8.08
2023-03-16T18:36:07.895Z,7.88
2023-03-16T18:40:19.661Z,7.80
2023-03-16T18:44:31.437Z,7.77
2023-03-16T18:48:42.952Z,7.74
2023-03-16T18:52:55.353Z,7.56
2023-03-16T18:57:18.403Z,7.69
2023-03-16T19:01:32.524Z,7.58
2023-03-16T19:05:44.249Z,7.55
2023-03-16T19:09:55.976Z,7.47
2023-03-16T19:14:34.913Z,7.35
2023-03-16T19:18:46.469Z,7.26
2023-03-16T19:23:06.434Z,7.23
2023-03-16T19:27:25.471Z,7.08
2023-03-16T19:31:37.005Z,6.98
2023-03-16T19:35:52.181Z,6.88
2023-03-16T19:40:05.179Z,6.76
2023-03-16T19:44:20.274Z,6.65
2023-03-16T19:48:33.799Z,6.49
2023-03-16T19:52:46.310Z,6.47
2023-03-16T19:56:59.480Z,6.42
2023-03-16T20:01:17.714Z,6.33
2023-03-16T20:05:30.447Z,6.23
2023-03-16T20:09:42.397Z,6.19
2023-03-16T20:13:54.539Z,6.14
2023-03-16T20:18:13.576Z,6.13
2023-03-16T20:22:28.317Z,6.02
2023-03-16T20:26:39.883Z,6.01
2023-03-16T20:30:52.504Z,5.90
2023-03-16T20:35:05.023Z,5.81
2023-03-16T20:39:16.734Z,5.70
2023-03-16T20:43:30.415Z,5.62
2023-03-16T20:47:42.348Z,5.59
2023-03-16T20:51:54.031Z,5.52
2023-03-16T20:56:06.726Z,5.39
2023-03-16T21:00:31.502Z,5.38
2023-03-16T21:04:44.176Z,5.26
2023-03-16T21:08:58.193Z,5.21
2023-03-16T21:13:31.415Z,5.28
2023-03-16T21:17:43.832Z,5.26
2023-03-16T21:21:55.562Z,5.26
2023-03-16T21:26:07.239Z,5.26
2023-03-16T21:30:35.468Z,5.22
2023-03-16T21:34:47.512Z,5.17
2023-03-16T21:38:59.127Z,5.12
2023-03-16T21:43:12.058Z,5.11
2023-03-16T21:47:26.800Z,5.12
2023-03-16T21:51:40.294Z,5.06
2023-03-16T21:55:52.397Z,5.06
2023-03-16T22:00:05.135Z,5.05
2023-03-16T22:04:18.968Z,4.99
2023-03-16T22:08:33.466Z,4.98
2023-03-16T22:12:45.119Z,4.83
2023-03-16T22:16:56.928Z,4.83
2023-03-16T22:21:25.331Z,4.76
2023-03-16T22:25:37.035Z,4.77
2023-03-16T22:29:49.941Z,4.68
